Terminal Aerodrome Forecast
Issued by NWS

Home | Current Version | Previous Version | Text Only | Print | Product List | Glossary On
Versions: 1 2 3 4 5 6 7 8 9 10 11 12 13 14 15 16 17 18 19 20 21 22 23 24 25 26 27 28 29 30 31
493
FTUS43 KLOT 210300 AAB
TAFORD
TAF AMD
KORD 210300Z 2103/2206 12007KT 1/2SM -DZ FG OVC002
     FM211300 17008KT 1SM BR OVC003
     FM211500 18011KT 3SM BR OVC007
     FM211800 19012G18KT P6SM SCT009 BKN015
     FM220000 17006KT 3SM BR SCT004 OVC008=

USA.gov is the U.S. government's official web portal to all federal, state and local government web resources and services.